sensor_id;sensor_type;location;lat;lon;timestamp;temperature;humidity
9847;DHT22;68671;50.084;8.794;2024-03-07T00:00:25;9.10;99.90
9847;DHT22;68671;50.084;8.794;2024-03-07T00:02:58;9.00;99.90
9847;DHT22;68671;50.084;8.794;2024-03-07T00:05:26;9.00;99.90
9847;DHT22;68671;50.084;8.794;2024-03-07T00:08:20;9.00;99.90
9847;DHT22;68671;50.084;8.794;2024-03-07T00:10:51;9.00;99.90
9847;DHT22;68671;50.084;8.794;2024-03-07T00:13:18;9.00;99.90
9847;DHT22;68671;50.084;8.794;2024-03-07T00:15:46;9.00;99.90
9847;DHT22;68671;50.084;8.794;2024-03-07T00:18:49;9.00;99.90
9847;DHT22;68671;50.084;8.794;2024-03-07T00:21:32;9.00;99.90
9847;DHT22;68671;50.084;8.794;2024-03-07T00:24:23;9.10;99.90
9847;DHT22;68671;50.084;8.794;2024-03-07T00:26:59;9.10;99.90
9847;DHT22;68671;50.084;8.794;2024-03-07T00:29:37;9.10;99.90
9847;DHT22;68671;50.084;8.794;2024-03-07T00:32:04;9.10;99.90
9847;DHT22;68671;50.084;8.794;2024-03-07T00:34:33;9.20;99.90
9847;DHT22;68671;50.084;8.794;2024-03-07T00:37:00;9.20;99.90
9847;DHT22;68671;50.084;8.794;2024-03-07T00:39:28;9.30;99.90
9847;DHT22;68671;50.084;8.794;2024-03-07T00:41:56;9.30;99.90
9847;DHT22;68671;50.084;8.794;2024-03-07T00:44:23;9.30;99.90
9847;DHT22;68671;50.084;8.794;2024-03-07T00:46:50;9.30;99.90
9847;DHT22;68671;50.084;8.794;2024-03-07T00:49:18;9.40;99.90
9847;DHT22;68671;50.084;8.794;2024-03-07T00:51:47;9.40;99.90
9847;DHT22;68671;50.084;8.794;2024-03-07T00:54:14;9.40;99.90
9847;DHT22;68671;50.084;8.794;2024-03-07T00:56:41;9.40;99.90
9847;DHT22;68671;50.084;8.794;2024-03-07T00:59:09;9.30;99.90
9847;DHT22;68671;50.084;8.794;2024-03-07T01:01:39;9.30;99.90
9847;DHT22;68671;50.084;8.794;2024-03-07T01:04:07;9.30;99.90
9847;DHT22;68671;50.084;8.794;2024-03-07T01:06:34;9.20;99.90
9847;DHT22;68671;50.084;8.794;2024-03-07T01:09:07;9.20;99.90
9847;DHT22;68671;50.084;8.794;2024-03-07T01:11:40;9.20;99.90
9847;DHT22;68671;50.084;8.794;2024-03-07T01:14:07;9.20;99.90
9847;DHT22;68671;50.084;8.794;2024-03-07T01:16:34;9.20;99.90
9847;DHT22;68671;50.084;8.794;2024-03-07T01:19:01;9.20;99.90
9847;DHT22;68671;50.084;8.794;2024-03-07T01:21:28;9.10;99.90
9847;DHT22;68671;50.084;8.794;2024-03-07T01:23:56;9.10;99.90
9847;DHT22;68671;50.084;8.794;2024-03-07T01:26:24;9.10;99.90
9847;DHT22;68671;50.084;8.794;2024-03-07T01:28:51;9.10;99.90
9847;DHT22;68671;50.084;8.794;2024-03-07T01:31:20;9.10;99.90
9847;DHT22;68671;50.084;8.794;2024-03-07T01:33:48;9.20;99.90
9847;DHT22;68671;50.084;8.794;2024-03-07T01:36:27;9.10;99.90
9847;DHT22;68671;50.084;8.794;2024-03-07T01:38:54;9.10;99.90
9847;DHT22;68671;50.084;8.794;2024-03-07T01:41:21;9.10;99.90
9847;DHT22;68671;50.084;8.794;2024-03-07T01:43:50;9.10;99.90
9847;DHT22;68671;50.084;8.794;2024-03-07T01:46:17;9.00;99.90
9847;DHT22;68671;50.084;8.794;2024-03-07T01:48:45;9.00;99.90
9847;DHT22;68671;50.084;8.794;2024-03-07T01:51:13;9.00;99.90
9847;DHT22;68671;50.084;8.794;2024-03-07T01:53:40;9.00;99.90
9847;DHT22;68671;50.084;8.794;2024-03-07T01:56:08;9.10;99.90
9847;DHT22;68671;50.084;8.794;2024-03-07T01:58:36;9.10;99.90
9847;DHT22;68671;50.084;8.794;2024-03-07T02:01:05;9.10;99.90
9847;DHT22;68671;50.084;8.794;2024-03-07T02:03:32;9.10;99.90
9847;DHT22;68671;50.084;8.794;2024-03-07T02:06:02;9.10;99.90
9847;DHT22;68671;50.084;8.794;2024-03-07T02:08:29;9.10;99.90
9847;DHT22;68671;50.084;8.794;2024-03-07T02:10:57;9.10;99.90
9847;DHT22;68671;50.084;8.794;2024-03-07T02:13:24;9.10;99.90
9847;DHT22;68671;50.084;8.794;2024-03-07T02:15:51;9.10;99.90
9847;DHT22;68671;50.084;8.794;2024-03-07T02:18:20;9.00;99.90
9847;DHT22;68671;50.084;8.794;2024-03-07T02:20:49;9.00;99.90
9847;DHT22;68671;50.084;8.794;2024-03-07T02:23:16;9.00;99.90
9847;DHT22;68671;50.084;8.794;2024-03-07T02:25:43;9.00;99.90
9847;DHT22;68671;50.084;8.794;2024-03-07T02:28:10;9.00;99.90
9847;DHT22;68671;50.084;8.794;2024-03-07T02:30:38;9.00;99.90
9847;DHT22;68671;50.084;8.794;2024-03-07T02:33:05;8.90;99.90
9847;DHT22;68671;50.084;8.794;2024-03-07T02:35:33;8.90;99.90
9847;DHT22;68671;50.084;8.794;2024-03-07T02:38:04;8.90;99.90
9847;DHT22;68671;50.084;8.794;2024-03-07T02:40:31;8.90;99.90
9847;DHT22;68671;50.084;8.794;2024-03-07T02:42:58;8.90;99.90
9847;DHT22;68671;50.084;8.794;2024-03-07T02:45:25;8.90;99.90
9847;DHT22;68671;50.084;8.794;2024-03-07T02:47:52;9.00;99.90
9847;DHT22;68671;50.084;8.794;2024-03-07T02:50:19;9.00;99.90
9847;DHT22;68671;50.084;8.794;2024-03-07T02:52:48;9.00;99.90
9847;DHT22;68671;50.084;8.794;2024-03-07T02:55:19;9.00;99.90
9847;DHT22;68671;50.084;8.794;2024-03-07T02:57:46;9.00;99.90
9847;DHT22;68671;50.084;8.794;2024-03-07T03:00:14;9.00;99.90
9847;DHT22;68671;50.084;8.794;2024-03-07T03:02:46;8.80;99.90
9847;DHT22;68671;50.084;8.794;2024-03-07T03:05:14;8.80;99.90
9847;DHT22;68671;50.084;8.794;2024-03-07T03:07:42;8.70;99.90
9847;DHT22;68671;50.084;8.794;2024-03-07T03:10:20;8.50;99.90
9847;DHT22;68671;50.084;8.794;2024-03-07T03:12:51;8.40;99.90
9847;DHT22;68671;50.084;8.794;2024-03-07T03:15:18;8.40;99.90
9847;DHT22;68671;50.084;8.794;2024-03-07T03:17:46;8.30;99.90
9847;DHT22;68671;50.084;8.794;2024-03-07T03:20:16;8.30;99.90
9847;DHT22;68671;50.084;8.794;2024-03-07T03:22:51;8.20;99.90
9847;DHT22;68671;50.084;8.794;2024-03-07T03:25:20;8.10;99.90
9847;DHT22;68671;50.084;8.794;2024-03-07T03:27:48;8.10;99.90
9847;DHT22;68671;50.084;8.794;2024-03-07T03:30:16;8.10;99.90
9847;DHT22;68671;50.084;8.794;2024-03-07T03:32:44;8.10;99.90
9847;DHT22;68671;50.084;8.794;2024-03-07T03:35:12;8.10;99.90
9847;DHT22;68671;50.084;8.794;2024-03-07T03:37:40;8.20;99.90
9847;DHT22;68671;50.084;8.794;2024-03-07T03:40:09;8.10;99.90
9847;DHT22;68671;50.084;8.794;2024-03-07T03:42:37;8.20;99.90
9847;DHT22;68671;50.084;8.794;2024-03-07T03:45:05;8.20;99.90
9847;DHT22;68671;50.084;8.794;2024-03-07T03:47:33;8.20;99.90
9847;DHT22;68671;50.084;8.794;2024-03-07T03:50:02;8.20;99.90
9847;DHT22;68671;50.084;8.794;2024-03-07T03:52:29;8.20;99.90
9847;DHT22;68671;50.084;8.794;2024-03-07T03:54:56;8.20;99.90
9847;DHT22;68671;50.084;8.794;2024-03-07T03:57:24;8.20;99.90
9847;DHT22;68671;50.084;8.794;2024-03-07T03:59:52;8.30;99.90
9847;DHT22;68671;50.084;8.794;2024-03-07T04:02:20;8.20;99.90
9847;DHT22;68671;50.084;8.794;2024-03-07T04:04:47;8.20;99.90
9847;DHT22;68671;50.084;8.794;2024-03-07T04:07:15;8.20;99.90
9847;DHT22;68671;50.084;8.794;2024-03-07T04:09:43;8.10;99.90
9847;DHT22;68671;50.084;8.794;2024-03-07T04:12:10;8.10;99.90
9847;DHT22;68671;50.084;8.794;2024-03-07T04:14:38;8.00;99.90
9847;DHT22;68671;50.084;8.794;2024-03-07T04:17:08;8.10;99.90
9847;DHT22;68671;50.084;8.794;2024-03-07T04:19:38;8.10;99.90
9847;DHT22;68671;50.084;8.794;2024-03-07T04:22:06;8.10;99.90
9847;DHT22;68671;50.084;8.794;2024-03-07T04:24:34;8.00;99.90
9847;DHT22;68671;50.084;8.794;2024-03-07T04:27:01;7.90;99.90
9847;DHT22;68671;50.084;8.794;2024-03-07T04:29:29;7.90;99.90
9847;DHT22;68671;50.084;8.794;2024-03-07T04:31:57;7.80;99.90
9847;DHT22;68671;50.084;8.794;2024-03-07T04:34:26;7.80;99.90
9847;DHT22;68671;50.084;8.794;2024-03-07T04:36:53;7.80;99.90
9847;DHT22;68671;50.084;8.794;2024-03-07T04:39:20;7.80;99.90
9847;DHT22;68671;50.084;8.794;2024-03-07T04:41:56;7.80;99.90
9847;DHT22;68671;50.084;8.794;2024-03-07T04:44:23;7.80;99.90
9847;DHT22;68671;50.084;8.794;2024-03-07T04:46:50;7.80;99.90
9847;DHT22;68671;50.084;8.794;2024-03-07T04:49:21;7.80;99.90
9847;DHT22;68671;50.084;8.794;2024-03-07T05:29:08;6.80;99.90
9847;DHT22;68671;50.084;8.794;2024-03-07T05:31:38;6.80;99.90
9847;DHT22;68671;50.084;8.794;2024-03-07T05:34:17;6.80;99.90
9847;DHT22;68671;50.084;8.794;2024-03-07T05:36:48;6.70;99.90
9847;DHT22;68671;50.084;8.794;2024-03-07T05:39:16;6.70;99.90
9847;DHT22;68671;50.084;8.794;2024-03-07T05:41:44;6.70;99.90
9847;DHT22;68671;50.084;8.794;2024-03-07T05:44:17;6.70;99.90
9847;DHT22;68671;50.084;8.794;2024-03-07T05:46:53;6.60;99.90
9847;DHT22;68671;50.084;8.794;2024-03-07T05:49:20;6.60;99.90
9847;DHT22;68671;50.084;8.794;2024-03-07T05:51:49;6.60;99.90
9847;DHT22;68671;50.084;8.794;2024-03-07T05:54:19;6.50;99.90
9847;DHT22;68671;50.084;8.794;2024-03-07T05:56:55;6.40;99.90
9847;DHT22;68671;50.084;8.794;2024-03-07T05:59:24;6.40;99.90
9847;DHT22;68671;50.084;8.794;2024-03-07T06:01:51;6.50;99.90
9847;DHT22;68671;50.084;8.794;2024-03-07T06:04:53;6.60;99.90
9847;DHT22;68671;50.084;8.794;2024-03-07T06:07:22;6.60;99.90
9847;DHT22;68671;50.084;8.794;2024-03-07T06:10:01;6.60;99.90
9847;DHT22;68671;50.084;8.794;2024-03-07T06:12:35;6.60;99.90
9847;DHT22;68671;50.084;8.794;2024-03-07T06:15:27;6.50;99.90
9847;DHT22;68671;50.084;8.794;2024-03-07T06:18:02;6.50;99.90
9847;DHT22;68671;50.084;8.794;2024-03-07T06:20:30;6.50;99.90
9847;DHT22;68671;50.084;8.794;2024-03-07T06:22:59;6.40;99.90
9847;DHT22;68671;50.084;8.794;2024-03-07T06:25:31;6.40;99.90
9847;DHT22;68671;50.084;8.794;2024-03-07T06:28:57;6.40;99.90
9847;DHT22;68671;50.084;8.794;2024-03-07T06:33:08;6.40;99.90
9847;DHT22;68671;50.084;8.794;2024-03-07T06:38:57;6.30;99.90
9847;DHT22;68671;50.084;8.794;2024-03-07T06:42:01;6.30;99.90
9847;DHT22;68671;50.084;8.794;2024-03-07T06:44:50;6.30;99.90
9847;DHT22;68671;50.084;8.794;2024-03-07T06:51:23;6.20;99.90
9847;DHT22;68671;50.084;8.794;2024-03-07T06:54:04;6.30;99.90
9847;DHT22;68671;50.084;8.794;2024-03-07T06:56:35;6.40;99.90
9847;DHT22;68671;50.084;8.794;2024-03-07T06:59:08;6.50;99.90
9847;DHT22;68671;50.084;8.794;2024-03-07T07:01:35;6.60;99.90
9847;DHT22;68671;50.084;8.794;2024-03-07T07:04:02;6.80;99.90
9847;DHT22;68671;50.084;8.794;2024-03-07T07:06:31;6.90;99.90
9847;DHT22;68671;50.084;8.794;2024-03-07T07:08:59;7.10;99.90
9847;DHT22;68671;50.084;8.794;2024-03-07T07:11:28;7.40;99.90
9847;DHT22;68671;50.084;8.794;2024-03-07T07:13:55;7.60;99.90
9847;DHT22;68671;50.084;8.794;2024-03-07T07:16:22;7.80;99.90
9847;DHT22;68671;50.084;8.794;2024-03-07T07:18:50;8.10;99.90
9847;DHT22;68671;50.084;8.794;2024-03-07T07:21:18;8.20;99.90
9847;DHT22;68671;50.084;8.794;2024-03-07T07:23:47;8.30;99.90
9847;DHT22;68671;50.084;8.794;2024-03-07T07:26:13;8.50;99.90
9847;DHT22;68671;50.084;8.794;2024-03-07T07:29:12;8.60;99.90
9847;DHT22;68671;50.084;8.794;2024-03-07T07:32:32;8.90;99.90
9847;DHT22;68671;50.084;8.794;2024-03-07T07:35:13;9.00;99.90
9847;DHT22;68671;50.084;8.794;2024-03-07T07:37:42;9.10;99.90
9847;DHT22;68671;50.084;8.794;2024-03-07T07:40:28;9.10;99.90
9847;DHT22;68671;50.084;8.794;2024-03-07T07:42:56;9.10;99.90
9847;DHT22;68671;50.084;8.794;2024-03-07T07:45:24;9.20;99.90
9847;DHT22;68671;50.084;8.794;2024-03-07T07:47:52;9.10;99.90
9847;DHT22;68671;50.084;8.794;2024-03-07T07:50:21;9.00;99.90
9847;DHT22;68671;50.084;8.794;2024-03-07T07:52:49;9.00;99.90
9847;DHT22;68671;50.084;8.794;2024-03-07T07:55:17;8.90;99.90
9847;DHT22;68671;50.084;8.794;2024-03-07T07:57:47;8.80;99.90
9847;DHT22;68671;50.084;8.794;2024-03-07T08:00:19;8.70;99.90
9847;DHT22;68671;50.084;8.794;2024-03-07T08:02:51;8.60;99.90
9847;DHT22;68671;50.084;8.794;2024-03-07T08:05:25;8.40;99.90
9847;DHT22;68671;50.084;8.794;2024-03-07T08:07:54;8.30;99.90
9847;DHT22;68671;50.084;8.794;2024-03-07T08:10:24;8.20;99.90
9847;DHT22;68671;50.084;8.794;2024-03-07T08:16:20;8.00;99.90
9847;DHT22;68671;50.084;8.794;2024-03-07T08:19:00;8.00;99.90
9847;DHT22;68671;50.084;8.794;2024-03-07T08:21:53;7.90;99.90
9847;DHT22;68671;50.084;8.794;2024-03-07T08:24:40;7.90;99.90
9847;DHT22;68671;50.084;8.794;2024-03-07T08:27:07;7.90;99.90
9847;DHT22;68671;50.084;8.794;2024-03-07T08:29:36;7.90;99.90
9847;DHT22;68671;50.084;8.794;2024-03-07T08:32:07;7.90;99.90
9847;DHT22;68671;50.084;8.794;2024-03-07T08:34:34;8.00;99.90
9847;DHT22;68671;50.084;8.794;2024-03-07T08:37:01;8.00;99.90
9847;DHT22;68671;50.084;8.794;2024-03-07T08:39:29;8.10;99.90
9847;DHT22;68671;50.084;8.794;2024-03-07T08:41:56;8.10;99.90
9847;DHT22;68671;50.084;8.794;2024-03-07T08:44:22;8.20;99.90
9847;DHT22;68671;50.084;8.794;2024-03-07T08:46:49;8.30;99.90
9847;DHT22;68671;50.084;8.794;2024-03-07T08:49:18;8.40;99.90
9847;DHT22;68671;50.084;8.794;2024-03-07T08:51:51;8.50;99.90
9847;DHT22;68671;50.084;8.794;2024-03-07T08:54:19;8.60;99.90
9847;DHT22;68671;50.084;8.794;2024-03-07T08:56:46;8.70;99.90
9847;DHT22;68671;50.084;8.794;2024-03-07T08:59:13;8.90;99.90
9847;DHT22;68671;50.084;8.794;2024-03-07T09:01:50;9.00;99.90
9847;DHT22;68671;50.084;8.794;2024-03-07T09:04:28;9.10;99.90
9847;DHT22;68671;50.084;8.794;2024-03-07T09:06:56;9.10;99.90
9847;DHT22;68671;50.084;8.794;2024-03-07T09:09:24;9.20;99.90
9847;DHT22;68671;50.084;8.794;2024-03-07T09:11:55;9.20;99.90
9847;DHT22;68671;50.084;8.794;2024-03-07T09:16:36;9.30;99.90
9847;DHT22;68671;50.084;8.794;2024-03-07T09:17:46;9.30;99.90
9847;DHT22;68671;50.084;8.794;2024-03-07T09:20:28;9.30;99.90
9847;DHT22;68671;50.084;8.794;2024-03-07T09:23:21;9.20;99.90
9847;DHT22;68671;50.084;8.794;2024-03-07T09:26:02;9.20;99.90
9847;DHT22;68671;50.084;8.794;2024-03-07T09:28:46;9.30;99.90
9847;DHT22;68671;50.084;8.794;2024-03-07T09:31:16;9.30;99.90
9847;DHT22;68671;50.084;8.794;2024-03-07T09:33:43;9.20;99.90
9847;DHT22;68671;50.084;8.794;2024-03-07T09:36:20;9.30;99.90
9847;DHT22;68671;50.084;8.794;2024-03-07T09:42:03;9.40;99.90
9847;DHT22;68671;50.084;8.794;2024-03-07T09:44:51;9.40;99.90
9847;DHT22;68671;50.084;8.794;2024-03-07T09:47:27;9.40;99.90
9847;DHT22;68671;50.084;8.794;2024-03-07T09:50:04;9.50;99.90
9847;DHT22;68671;50.084;8.794;2024-03-07T09:52:46;9.60;99.90
9847;DHT22;68671;50.084;8.794;2024-03-07T09:55:35;9.70;99.90
9847;DHT22;68671;50.084;8.794;2024-03-07T09:58:17;9.80;99.90
9847;DHT22;68671;50.084;8.794;2024-03-07T10:00:53;9.90;99.90
9847;DHT22;68671;50.084;8.794;2024-03-07T10:03:49;10.00;99.90
9847;DHT22;68671;50.084;8.794;2024-03-07T10:06:31;10.10;99.90
9847;DHT22;68671;50.084;8.794;2024-03-07T10:09:51;10.20;99.90
9847;DHT22;68671;50.084;8.794;2024-03-07T10:13:07;10.20;99.90
9847;DHT22;68671;50.084;8.794;2024-03-07T10:15:59;10.20;99.90
9847;DHT22;68671;50.084;8.794;2024-03-07T10:22:12;10.30;99.90
9847;DHT22;68671;50.084;8.794;2024-03-07T10:25:02;10.30;99.90
9847;DHT22;68671;50.084;8.794;2024-03-07T10:28:12;10.40;99.90
9847;DHT22;68671;50.084;8.794;2024-03-07T10:30:42;10.40;99.90
9847;DHT22;68671;50.084;8.794;2024-03-07T10:33:17;10.40;99.90
9847;DHT22;68671;50.084;8.794;2024-03-07T10:35:51;10.40;99.90
9847;DHT22;68671;50.084;8.794;2024-03-07T10:38:18;10.50;99.90
9847;DHT22;68671;50.084;8.794;2024-03-07T10:40:53;10.50;99.90
9847;DHT22;68671;50.084;8.794;2024-03-07T10:43:21;10.40;99.90
9847;DHT22;68671;50.084;8.794;2024-03-07T10:45:56;10.40;99.90
9847;DHT22;68671;50.084;8.794;2024-03-07T10:48:31;10.40;99.90
9847;DHT22;68671;50.084;8.794;2024-03-07T10:51:19;10.40;99.90
9847;DHT22;68671;50.084;8.794;2024-03-07T10:54:02;10.40;99.90
9847;DHT22;68671;50.084;8.794;2024-03-07T10:56:43;10.50;99.90
9847;DHT22;68671;50.084;8.794;2024-03-07T10:59:17;10.50;99.90
9847;DHT22;68671;50.084;8.794;2024-03-07T11:09:20;10.60;99.90
9847;DHT22;68671;50.084;8.794;2024-03-07T11:35:13;10.10;99.90
9847;DHT22;68671;50.084;8.794;2024-03-07T11:37:43;10.00;99.90
9847;DHT22;68671;50.084;8.794;2024-03-07T11:43:46;9.90;99.90
9847;DHT22;68671;50.084;8.794;2024-03-07T11:46:35;10.00;99.90
9847;DHT22;68671;50.084;8.794;2024-03-07T11:49:27;10.00;99.90
9847;DHT22;68671;50.084;8.794;2024-03-07T11:52:09;10.00;99.90
9847;DHT22;68671;50.084;8.794;2024-03-07T11:59:02;10.10;99.90
9847;DHT22;68671;50.084;8.794;2024-03-07T12:01:50;10.20;99.90
9847;DHT22;68671;50.084;8.794;2024-03-07T12:04:20;10.30;99.90
9847;DHT22;68671;50.084;8.794;2024-03-07T12:06:51;10.30;99.90
9847;DHT22;68671;50.084;8.794;2024-03-07T12:09:34;10.30;99.90
9847;DHT22;68671;50.084;8.794;2024-03-07T12:12:11;10.30;99.90
9847;DHT22;68671;50.084;8.794;2024-03-07T12:17:50;10.40;99.90
9847;DHT22;68671;50.084;8.794;2024-03-07T12:20:22;10.40;99.90
9847;DHT22;68671;50.084;8.794;2024-03-07T12:22:56;10.40;99.90
9847;DHT22;68671;50.084;8.794;2024-03-07T12:25:32;10.40;99.90
9847;DHT22;68671;50.084;8.794;2024-03-07T12:28:04;10.40;99.90
9847;DHT22;68671;50.084;8.794;2024-03-07T12:30:47;10.40;99.90
9847;DHT22;68671;50.084;8.794;2024-03-07T12:33:18;10.50;99.90
9847;DHT22;68671;50.084;8.794;2024-03-07T12:35:46;10.50;99.90
9847;DHT22;68671;50.084;8.794;2024-03-07T12:39:52;10.50;99.90
9847;DHT22;68671;50.084;8.794;2024-03-07T12:41:52;10.60;99.90
9847;DHT22;68671;50.084;8.794;2024-03-07T12:44:22;10.70;99.90
9847;DHT22;68671;50.084;8.794;2024-03-07T12:46:51;10.70;99.90
9847;DHT22;68671;50.084;8.794;2024-03-07T12:49:27;10.80;99.90
9847;DHT22;68671;50.084;8.794;2024-03-07T12:51:58;10.90;99.90
9847;DHT22;68671;50.084;8.794;2024-03-07T12:54:30;11.00;99.90
9847;DHT22;68671;50.084;8.794;2024-03-07T12:57:08;11.10;99.90
9847;DHT22;68671;50.084;8.794;2024-03-07T12:59:39;11.10;99.90
9847;DHT22;68671;50.084;8.794;2024-03-07T13:02:07;11.10;99.90
9847;DHT22;68671;50.084;8.794;2024-03-07T13:04:36;11.10;99.90
9847;DHT22;68671;50.084;8.794;2024-03-07T13:07:06;11.10;99.90
9847;DHT22;68671;50.084;8.794;2024-03-07T13:09:34;11.20;99.90
9847;DHT22;68671;50.084;8.794;2024-03-07T13:12:07;11.30;99.90
9847;DHT22;68671;50.084;8.794;2024-03-07T13:14:35;11.30;99.90
9847;DHT22;68671;50.084;8.794;2024-03-07T13:17:10;11.40;99.90
9847;DHT22;68671;50.084;8.794;2024-03-07T13:20:19;11.40;99.90
9847;DHT22;68671;50.084;8.794;2024-03-07T13:29:34;11.50;99.90
9847;DHT22;68671;50.084;8.794;2024-03-07T13:32:18;11.50;99.90
9847;DHT22;68671;50.084;8.794;2024-03-07T13:34:45;11.50;99.90
9847;DHT22;68671;50.084;8.794;2024-03-07T13:37:15;11.50;99.90
9847;DHT22;68671;50.084;8.794;2024-03-07T13:39:43;11.40;99.90
9847;DHT22;68671;50.084;8.794;2024-03-07T13:42:14;11.40;99.90
9847;DHT22;68671;50.084;8.794;2024-03-07T13:44:54;11.40;99.90
9847;DHT22;68671;50.084;8.794;2024-03-07T13:47:22;11.40;99.90
9847;DHT22;68671;50.084;8.794;2024-03-07T13:50:10;11.40;99.90
9847;DHT22;68671;50.084;8.794;2024-03-07T13:55:17;11.40;99.90
9847;DHT22;68671;50.084;8.794;2024-03-07T13:57:49;11.30;99.90
9847;DHT22;68671;50.084;8.794;2024-03-07T14:01:12;11.30;99.90
9847;DHT22;68671;50.084;8.794;2024-03-07T14:04:23;11.30;99.90
9847;DHT22;68671;50.084;8.794;2024-03-07T14:07:12;11.30;99.90
9847;DHT22;68671;50.084;8.794;2024-03-07T14:09:56;11.30;99.90
9847;DHT22;68671;50.084;8.794;2024-03-07T14:12:53;11.30;99.90
9847;DHT22;68671;50.084;8.794;2024-03-07T14:15:56;11.40;99.90
9847;DHT22;68671;50.084;8.794;2024-03-07T14:28:11;11.40;99.90
9847;DHT22;68671;50.084;8.794;2024-03-07T14:30:44;11.40;99.90
9847;DHT22;68671;50.084;8.794;2024-03-07T14:33:21;11.40;99.90
9847;DHT22;68671;50.084;8.794;2024-03-07T14:36:09;11.40;99.90
9847;DHT22;68671;50.084;8.794;2024-03-07T14:42:01;11.50;99.90
9847;DHT22;68671;50.084;8.794;2024-03-07T14:44:34;11.50;99.90
9847;DHT22;68671;50.084;8.794;2024-03-07T14:47:04;11.50;99.90
9847;DHT22;68671;50.084;8.794;2024-03-07T14:49:43;11.50;99.90
9847;DHT22;68671;50.084;8.794;2024-03-07T14:52:23;11.40;99.90
9847;DHT22;68671;50.084;8.794;2024-03-07T14:54:55;11.40;99.90
9847;DHT22;68671;50.084;8.794;2024-03-07T15:00:29;11.30;99.90
9847;DHT22;68671;50.084;8.794;2024-03-07T15:03:00;11.30;99.90
9847;DHT22;68671;50.084;8.794;2024-03-07T15:05:27;11.30;99.90
9847;DHT22;68671;50.084;8.794;2024-03-07T15:07:54;11.30;99.90
9847;DHT22;68671;50.084;8.794;2024-03-07T15:10:25;11.30;99.90
9847;DHT22;68671;50.084;8.794;2024-03-07T15:12:53;11.30;99.90
9847;DHT22;68671;50.084;8.794;2024-03-07T15:15:20;11.30;99.90
9847;DHT22;68671;50.084;8.794;2024-03-07T15:17:51;11.40;99.90
9847;DHT22;68671;50.084;8.794;2024-03-07T15:20:18;11.50;99.90
9847;DHT22;68671;50.084;8.794;2024-03-07T15:22:51;11.50;99.90
9847;DHT22;68671;50.084;8.794;2024-03-07T15:25:18;11.50;99.90
9847;DHT22;68671;50.084;8.794;2024-03-07T15:27:48;11.60;99.90
9847;DHT22;68671;50.084;8.794;2024-03-07T15:30:15;11.60;99.90
9847;DHT22;68671;50.084;8.794;2024-03-07T15:32:43;11.60;99.90
9847;DHT22;68671;50.084;8.794;2024-03-07T15:35:13;11.50;99.90
9847;DHT22;68671;50.084;8.794;2024-03-07T15:37:43;11.40;99.90
9847;DHT22;68671;50.084;8.794;2024-03-07T15:40:11;11.40;99.90
9847;DHT22;68671;50.084;8.794;2024-03-07T15:42:42;11.40;99.90
9847;DHT22;68671;50.084;8.794;2024-03-07T15:45:13;11.40;99.90
9847;DHT22;68671;50.084;8.794;2024-03-07T15:47:45;11.30;99.90
9847;DHT22;68671;50.084;8.794;2024-03-07T15:50:14;11.30;99.90
9847;DHT22;68671;50.084;8.794;2024-03-07T15:52:41;11.40;99.90
9847;DHT22;68671;50.084;8.794;2024-03-07T15:55:09;11.40;99.90
9847;DHT22;68671;50.084;8.794;2024-03-07T15:57:44;11.40;99.90
9847;DHT22;68671;50.084;8.794;2024-03-07T16:00:14;11.50;99.90
9847;DHT22;68671;50.084;8.794;2024-03-07T16:02:52;11.40;99.90
9847;DHT22;68671;50.084;8.794;2024-03-07T16:05:25;11.40;99.90
9847;DHT22;68671;50.084;8.794;2024-03-07T16:08:01;11.50;99.90
9847;DHT22;68671;50.084;8.794;2024-03-07T16:13:53;11.40;99.90
9847;DHT22;68671;50.084;8.794;2024-03-07T16:16:39;11.40;99.90
9847;DHT22;68671;50.084;8.794;2024-03-07T16:19:10;11.30;99.90
9847;DHT22;68671;50.084;8.794;2024-03-07T16:21:56;11.20;99.90
9847;DHT22;68671;50.084;8.794;2024-03-07T16:24:23;11.20;99.90
9847;DHT22;68671;50.084;8.794;2024-03-07T16:26:54;11.10;99.90
9847;DHT22;68671;50.084;8.794;2024-03-07T16:29:25;11.10;99.90
9847;DHT22;68671;50.084;8.794;2024-03-07T16:45:05;11.00;99.90
9847;DHT22;68671;50.084;8.794;2024-03-07T16:47:36;10.90;99.90
9847;DHT22;68671;50.084;8.794;2024-03-07T16:50:04;10.90;99.90
9847;DHT22;68671;50.084;8.794;2024-03-07T16:52:35;10.80;99.90
9847;DHT22;68671;50.084;8.794;2024-03-07T16:55:07;10.80;99.90
9847;DHT22;68671;50.084;8.794;2024-03-07T17:15:00;10.60;99.90
9847;DHT22;68671;50.084;8.794;2024-03-07T17:17:28;10.60;99.90
9847;DHT22;68671;50.084;8.794;2024-03-07T17:19:57;10.60;99.90
9847;DHT22;68671;50.084;8.794;2024-03-07T17:22:26;10.60;99.90
9847;DHT22;68671;50.084;8.794;2024-03-07T17:24:54;10.60;99.90
9847;DHT22;68671;50.084;8.794;2024-03-07T17:27:21;10.60;99.90
9847;DHT22;68671;50.084;8.794;2024-03-07T17:29:49;10.60;99.90
9847;DHT22;68671;50.084;8.794;2024-03-07T17:32:18;10.60;99.90
9847;DHT22;68671;50.084;8.794;2024-03-07T17:34:45;10.70;99.90
9847;DHT22;68671;50.084;8.794;2024-03-07T17:37:13;10.70;99.90
9847;DHT22;68671;50.084;8.794;2024-03-07T17:39:42;10.60;99.90
9847;DHT22;68671;50.084;8.794;2024-03-07T17:42:09;10.60;99.90
9847;DHT22;68671;50.084;8.794;2024-03-07T17:44:37;10.60;99.90
9847;DHT22;68671;50.084;8.794;2024-03-07T17:47:04;10.50;99.90
9847;DHT22;68671;50.084;8.794;2024-03-07T17:56:20;10.30;99.90
9847;DHT22;68671;50.084;8.794;2024-03-07T17:58:50;10.20;99.90
9847;DHT22;68671;50.084;8.794;2024-03-07T18:01:21;10.20;99.90
9847;DHT22;68671;50.084;8.794;2024-03-07T18:03:51;10.20;99.90
9847;DHT22;68671;50.084;8.794;2024-03-07T18:17:10;10.10;99.90
9847;DHT22;68671;50.084;8.794;2024-03-07T18:20:31;10.00;99.90
9847;DHT22;68671;50.084;8.794;2024-03-07T18:25:53;10.00;99.90
9847;DHT22;68671;50.084;8.794;2024-03-07T18:28:25;10.00;99.90
9847;DHT22;68671;50.084;8.794;2024-03-07T18:30:52;10.00;99.90
9847;DHT22;68671;50.084;8.794;2024-03-07T18:33:21;9.90;99.90
9847;DHT22;68671;50.084;8.794;2024-03-07T18:35:48;9.80;99.90
9847;DHT22;68671;50.084;8.794;2024-03-07T18:38:15;9.90;99.90
9847;DHT22;68671;50.084;8.794;2024-03-07T18:40:42;9.80;99.90
9847;DHT22;68671;50.084;8.794;2024-03-07T18:43:09;9.80;99.90
9847;DHT22;68671;50.084;8.794;2024-03-07T18:45:38;9.80;99.90
9847;DHT22;68671;50.084;8.794;2024-03-07T18:48:09;9.80;99.90
9847;DHT22;68671;50.084;8.794;2024-03-07T18:50:39;9.80;99.90
9847;DHT22;68671;50.084;8.794;2024-03-07T18:53:10;9.70;99.90
9847;DHT22;68671;50.084;8.794;2024-03-07T18:55:47;9.70;99.90
9847;DHT22;68671;50.084;8.794;2024-03-07T18:59:06;9.60;99.90
9847;DHT22;68671;50.084;8.794;2024-03-07T19:01:39;9.50;99.90
9847;DHT22;68671;50.084;8.794;2024-03-07T19:04:22;9.50;99.90
9847;DHT22;68671;50.084;8.794;2024-03-07T19:06:53;9.50;99.90
9847;DHT22;68671;50.084;8.794;2024-03-07T19:09:23;9.40;99.90
9847;DHT22;68671;50.084;8.794;2024-03-07T19:11:57;9.40;99.90
9847;DHT22;68671;50.084;8.794;2024-03-07T19:14:25;9.40;99.90
9847;DHT22;68671;50.084;8.794;2024-03-07T19:16:52;9.30;99.90
9847;DHT22;68671;50.084;8.794;2024-03-07T19:19:19;9.20;99.90
9847;DHT22;68671;50.084;8.794;2024-03-07T19:21:46;9.10;99.90
9847;DHT22;68671;50.084;8.794;2024-03-07T19:24:15;9.10;99.90
9847;DHT22;68671;50.084;8.794;2024-03-07T19:26:45;9.00;99.90
9847;DHT22;68671;50.084;8.794;2024-03-07T19:29:14;8.90;99.90
9847;DHT22;68671;50.084;8.794;2024-03-07T19:31:46;8.90;99.90